createdAt,value
2018-10-09T00:00:45.060Z,26.37
2018-10-09T00:03:14.167Z,28.63
2018-10-09T00:05:43.263Z,31.47
2018-10-09T00:08:12.370Z,28.27
2018-10-09T00:10:41.546Z,30.37
2018-10-09T00:13:10.710Z,30.20
2018-10-09T00:15:39.845Z,29.37
2018-10-09T00:18:08.931Z,32.17
2018-10-09T00:20:38.061Z,32.20
2018-10-09T00:23:07.606Z,30.33
2018-10-09T00:25:36.725Z,33.20
2018-10-09T00:28:05.861Z,30.07
2018-10-09T00:30:34.922Z,32.33
2018-10-09T00:33:04.081Z,30.93
2018-10-09T00:35:33.204Z,29.37
2018-10-09T00:38:02.294Z,29.90
2018-10-09T00:40:31.362Z,28.30
2018-10-09T00:43:00.494Z,28.60
2018-10-09T00:45:29.641Z,28.80
2018-10-09T00:47:58.753Z,29.47
2018-10-09T00:50:27.759Z,27.93
2018-10-09T00:52:56.915Z,26.67
2018-10-09T00:55:26.085Z,28.70
2018-10-09T00:57:55.167Z,26.00
2018-10-09T01:00:24.259Z,42.63
2018-10-09T01:02:53.409Z,29.90
2018-10-09T01:05:22.589Z,31.90
2018-10-09T01:07:51.728Z,33.10
2018-10-09T01:10:20.906Z,49.47
2018-10-09T01:12:50.002Z,42.77
2018-10-09T01:15:19.161Z,45.03
2018-10-09T01:17:48.209Z,42.10
2018-10-09T01:20:21.360Z,55.80
2018-10-09T01:22:50.409Z,37.07
2018-10-09T01:25:19.534Z,43.50
2018-10-09T01:27:48.655Z,30.90
2018-10-09T01:30:17.728Z,30.00
2018-10-09T01:32:46.786Z,41.43
2018-10-09T01:35:15.899Z,40.77
2018-10-09T01:37:44.967Z,29.63
2018-10-09T01:40:14.086Z,29.00
2018-10-09T01:42:43.142Z,26.97
2018-10-09T01:45:12.185Z,27.60
2018-10-09T01:47:41.274Z,28.50
2018-10-09T01:50:10.462Z,26.20
2018-10-09T01:52:39.542Z,26.43
2018-10-09T01:55:08.966Z,26.13
2018-10-09T01:57:38.097Z,25.63
2018-10-09T02:00:08.831Z,26.30
2018-10-09T02:02:38.030Z,25.27
2018-10-09T02:05:07.322Z,27.43
2018-10-09T02:07:36.425Z,27.13
2018-10-09T02:10:05.755Z,24.70
2018-10-09T02:12:34.855Z,25.13
2018-10-09T02:15:04.113Z,24.00
2018-10-09T02:17:33.198Z,24.83
2018-10-09T02:20:02.416Z,25.67
2018-10-09T02:22:32.609Z,25.20
2018-10-09T02:25:01.688Z,29.00
2018-10-09T02:27:30.761Z,82.57
2018-10-09T02:29:59.878Z,44.83
2018-10-09T02:32:28.950Z,32.97
2018-10-09T02:34:58.098Z,27.17
2018-10-09T02:37:27.210Z,35.00
2018-10-09T02:39:56.334Z,41.23
2018-10-09T02:42:25.414Z,31.47
2018-10-09T02:44:54.522Z,30.37
2018-10-09T02:47:23.592Z,41.90
2018-10-09T02:49:52.656Z,61.63
2018-10-09T02:52:21.838Z,69.57
2018-10-09T02:54:50.966Z,58.90
2018-10-09T02:57:20.052Z,65.83
2018-10-09T02:59:49.203Z,50.60
2018-10-09T03:02:18.365Z,37.70
2018-10-09T03:04:47.491Z,35.80
2018-10-09T03:07:16.641Z,42.80
2018-10-09T03:09:45.768Z,50.43
2018-10-09T03:12:14.887Z,43.77
2018-10-09T03:14:44.064Z,40.57
2018-10-09T03:17:13.146Z,34.80
2018-10-09T03:19:42.257Z,34.77
2018-10-09T03:22:11.441Z,28.53
2018-10-09T03:24:40.577Z,29.63
2018-10-09T03:27:09.774Z,30.03
2018-10-09T03:29:38.894Z,33.40
2018-10-09T03:32:08.371Z,35.77
2018-10-09T03:34:37.465Z,27.17
2018-10-09T03:37:08.738Z,29.17
2018-10-09T03:39:37.841Z,35.10
2018-10-09T03:42:07.009Z,44.93
2018-10-09T03:44:36.053Z,65.73
2018-10-09T03:47:05.222Z,54.27
2018-10-09T03:49:34.317Z,77.83
2018-10-09T03:52:03.430Z,101.80
2018-10-09T03:54:32.569Z,77.30
2018-10-09T03:57:01.690Z,69.77
2018-10-09T03:59:30.813Z,133.10
2018-10-09T04:01:59.933Z,74.97
2018-10-09T04:04:29.054Z,64.73
2018-10-09T04:06:58.181Z,59.83
2018-10-09T04:09:27.310Z,59.40
2018-10-09T04:11:56.426Z,54.10
2018-10-09T04:14:25.583Z,35.60
2018-10-09T04:16:54.717Z,41.90
2018-10-09T04:19:24.158Z,41.43
2018-10-09T04:21:57.269Z,36.90
2018-10-09T04:24:26.278Z,37.03
2018-10-09T04:26:55.489Z,38.07
2018-10-09T04:29:24.632Z,38.90
2018-10-09T04:31:53.753Z,32.80
2018-10-09T04:34:22.777Z,29.80
2018-10-09T04:36:51.934Z,32.23
2018-10-09T04:39:20.957Z,38.97
2018-10-09T04:41:50.029Z,41.63
2018-10-09T04:44:19.157Z,27.20
2018-10-09T04:46:48.315Z,29.33
2018-10-09T04:49:17.431Z,33.97
2018-10-09T04:51:46.562Z,28.80
2018-10-09T04:54:15.658Z,27.57
2018-10-09T04:56:44.761Z,32.60
2018-10-09T04:59:13.866Z,27.47
2018-10-09T05:01:43.031Z,26.13
2018-10-09T05:04:12.145Z,28.37
2018-10-09T05:06:41.275Z,24.23
2018-10-09T05:09:11.523Z,24.40
2018-10-09T05:11:40.765Z,24.03
2018-10-09T05:14:09.945Z,25.63
2018-10-09T05:16:39.034Z,27.00
2018-10-09T05:19:08.214Z,33.57
2018-10-09T05:21:37.242Z,35.50
2018-10-09T05:24:06.342Z,30.07
2018-10-09T05:26:35.469Z,26.57
2018-10-09T05:29:04.710Z,24.10
2018-10-09T05:31:34.108Z,24.60
2018-10-09T05:34:03.205Z,29.97
2018-10-09T05:36:32.363Z,29.80
2018-10-09T05:39:01.534Z,31.23
2018-10-09T05:41:30.772Z,25.47
2018-10-09T05:43:59.819Z,28.57
2018-10-09T05:46:28.974Z,34.30
2018-10-09T05:48:58.118Z,35.10
2018-10-09T05:51:27.306Z,33.27
2018-10-09T05:53:56.413Z,28.67
2018-10-09T05:56:25.628Z,35.53
2018-10-09T05:58:54.735Z,30.97
2018-10-09T06:01:23.840Z,42.10
2018-10-09T06:03:52.973Z,40.67
2018-10-09T06:06:22.327Z,45.10
2018-10-09T06:08:51.446Z,37.30
2018-10-09T06:11:20.591Z,36.63
2018-10-09T06:13:49.775Z,36.53
2018-10-09T06:16:18.928Z,47.50
2018-10-09T06:18:47.956Z,46.97
2018-10-09T06:21:17.030Z,46.73
2018-10-09T06:23:46.149Z,35.10
2018-10-09T06:26:15.282Z,55.00
2018-10-09T06:28:44.386Z,40.50
2018-10-09T06:31:13.386Z,46.70
2018-10-09T06:33:42.543Z,36.53
2018-10-09T06:36:11.718Z,51.10
2018-10-09T06:38:40.890Z,45.43
2018-10-09T06:41:09.997Z,47.73
2018-10-09T06:43:39.076Z,53.03
2018-10-09T06:46:08.189Z,83.90
2018-10-09T06:48:37.214Z,61.30
2018-10-09T06:51:06.417Z,47.90
2018-10-09T06:53:35.601Z,82.90
2018-10-09T06:56:04.765Z,85.10
2018-10-09T06:58:33.776Z,68.47
2018-10-09T07:01:02.875Z,48.17
2018-10-09T07:03:31.940Z,34.47
2018-10-09T07:06:01.010Z,76.67
2018-10-09T07:08:30.543Z,66.73
2018-10-09T07:10:59.609Z,59.73
2018-10-09T07:13:29.194Z,53.00
2018-10-09T07:15:58.330Z,45.63
2018-10-09T07:18:27.425Z,42.90
2018-10-09T07:20:56.574Z,50.73
2018-10-09T07:23:25.735Z,45.07
2018-10-09T07:25:54.856Z,33.77
2018-10-09T07:28:23.983Z,51.10
2018-10-09T07:30:53.125Z,53.37
2018-10-09T07:33:22.261Z,39.90
2018-10-09T07:35:51.418Z,51.60
2018-10-09T07:38:20.583Z,41.83
2018-10-09T07:40:49.722Z,41.70
2018-10-09T07:43:18.802Z,41.00
2018-10-09T07:45:47.887Z,61.53
2018-10-09T07:48:17.015Z,47.30
2018-10-09T07:50:46.110Z,46.60
2018-10-09T07:53:15.250Z,46.23
2018-10-09T07:55:44.298Z,41.53
2018-10-09T07:58:13.322Z,39.37
2018-10-09T08:00:42.374Z,39.40
2018-10-09T08:03:11.491Z,41.30
2018-10-09T08:05:40.663Z,45.67
2018-10-09T08:08:09.781Z,43.70
2018-10-09T08:10:38.885Z,46.00
2018-10-09T08:13:08.042Z,44.23
2018-10-09T08:15:37.074Z,44.77
2018-10-09T08:18:06.534Z,47.13
2018-10-09T08:20:35.622Z,45.10
2018-10-09T08:23:04.626Z,46.27
2018-10-09T08:25:33.761Z,48.07
2018-10-09T08:28:02.942Z,46.43
2018-10-09T08:30:32.003Z,45.53
2018-10-09T08:33:01.099Z,42.97
2018-10-09T08:35:30.194Z,42.47
2018-10-09T08:37:59.283Z,44.10
2018-10-09T08:40:28.435Z,44.77
2018-10-09T08:42:57.406Z,43.67
2018-10-09T08:45:26.469Z,44.23
2018-10-09T08:47:55.537Z,41.47
2018-10-09T08:50:24.677Z,41.43
2018-10-09T08:52:53.682Z,43.67
2018-10-09T08:55:22.946Z,42.77
2018-10-09T08:57:52.086Z,42.00
2018-10-09T09:00:21.138Z,41.73
2018-10-09T09:02:50.204Z,40.03
2018-10-09T09:05:19.313Z,38.83
2018-10-09T09:07:48.362Z,38.10
2018-10-09T09:10:17.537Z,37.03
2018-10-09T09:12:46.651Z,34.57
2018-10-09T09:15:16.228Z,37.47
2018-10-09T09:17:45.270Z,39.57
2018-10-09T09:20:14.349Z,37.57
2018-10-09T09:22:43.518Z,39.83
2018-10-09T09:25:12.647Z,38.63
2018-10-09T09:27:41.735Z,38.23
2018-10-09T09:30:10.827Z,35.63
2018-10-09T09:32:40.158Z,38.17
2018-10-09T09:35:09.265Z,38.30
2018-10-09T09:37:38.366Z,37.40
2018-10-09T09:40:08.972Z,37.93
2018-10-09T09:42:38.122Z,37.37
2018-10-09T09:45:07.345Z,36.67
2018-10-09T09:47:36.435Z,36.50
2018-10-09T09:50:06.264Z,35.23
2018-10-09T09:52:35.391Z,37.10
2018-10-09T09:55:04.635Z,35.57
2018-10-09T09:57:33.798Z,36.93
2018-10-09T10:00:02.923Z,36.70
2018-10-09T10:02:32.121Z,35.13
2018-10-09T10:05:01.319Z,34.73
2018-10-09T10:07:30.347Z,34.17
2018-10-09T10:09:59.418Z,33.07
2018-10-09T10:12:28.534Z,32.60
2018-10-09T10:14:57.747Z,30.93
2018-10-09T10:17:26.847Z,31.40
2018-10-09T10:19:55.902Z,30.70
2018-10-09T10:22:24.991Z,31.13
2018-10-09T10:24:54.114Z,30.23
2018-10-09T10:27:23.267Z,29.97
2018-10-09T10:29:52.386Z,28.87
2018-10-09T10:32:21.537Z,28.83
2018-10-09T10:34:50.714Z,28.33
2018-10-09T10:37:19.802Z,28.03
2018-10-09T10:39:48.917Z,28.43
2018-10-09T10:42:18.191Z,28.80
2018-10-09T10:44:47.487Z,30.00
2018-10-09T10:47:16.650Z,27.67
2018-10-09T10:49:45.774Z,27.33
2018-10-09T10:52:14.974Z,26.23
2018-10-09T10:54:44.276Z,27.83
2018-10-09T10:57:13.390Z,28.73
2018-10-09T10:59:42.537Z,28.43
2018-10-09T11:02:11.762Z,27.97
2018-10-09T11:04:40.873Z,28.03
2018-10-09T11:07:10.022Z,26.50
2018-10-09T11:09:39.173Z,26.60
2018-10-09T11:12:08.313Z,25.70
2018-10-09T11:14:37.501Z,26.40
2018-10-09T11:17:06.630Z,27.87
2018-10-09T11:19:35.729Z,32.77
2018-10-09T11:22:04.881Z,29.77
2018-10-09T11:24:34.018Z,29.47
2018-10-09T11:27:03.162Z,27.93
2018-10-09T11:29:32.336Z,27.80
2018-10-09T11:32:01.537Z,26.73
2018-10-09T11:34:30.649Z,27.00
2018-10-09T11:36:59.774Z,25.70
2018-10-09T11:39:28.906Z,25.87
2018-10-09T11:41:58.082Z,25.20
2018-10-09T11:44:27.218Z,25.60
2018-10-09T11:46:56.293Z,24.57
2018-10-09T11:49:25.439Z,23.07
2018-10-09T11:51:54.568Z,24.23
2018-10-09T11:54:23.695Z,25.03
2018-10-09T11:56:52.827Z,23.83
2018-10-09T11:59:21.952Z,21.40
2018-10-09T12:01:51.188Z,24.47
2018-10-09T12:04:20.262Z,22.70
2018-10-09T12:06:49.641Z,23.47
2018-10-09T12:09:18.772Z,24.30
2018-10-09T12:11:47.921Z,21.63
2018-10-09T12:14:17.092Z,25.90
2018-10-09T12:16:46.342Z,24.73
2018-10-09T12:19:15.471Z,22.90
2018-10-09T12:21:44.588Z,21.80
2018-10-09T12:24:13.713Z,20.57
2018-10-09T12:26:42.921Z,21.00
2018-10-09T12:29:12.048Z,22.57
2018-10-09T12:31:41.205Z,20.03
2018-10-09T12:34:10.303Z,21.83
2018-10-09T12:36:39.434Z,22.37
2018-10-09T12:39:11.380Z,22.03
2018-10-09T12:41:40.591Z,21.77
2018-10-09T12:44:09.757Z,20.40
2018-10-09T12:46:39.529Z,20.57
2018-10-09T12:49:09.130Z,20.23
2018-10-09T12:51:38.368Z,19.23
2018-10-09T12:54:07.518Z,18.70
2018-10-09T12:56:36.642Z,18.43
2018-10-09T12:59:06.215Z,19.83
2018-10-09T13:01:35.325Z,17.77
2018-10-09T13:04:04.509Z,17.87
2018-10-09T13:06:33.710Z,16.87
2018-10-09T13:09:02.950Z,17.93
2018-10-09T13:11:32.138Z,17.20
2018-10-09T13:14:01.324Z,17.83
2018-10-09T13:16:30.502Z,17.53
2018-10-09T13:19:00.012Z,17.00
2018-10-09T13:21:29.306Z,17.50
2018-10-09T13:23:58.353Z,17.17
2018-10-09T13:26:27.512Z,18.40
2018-10-09T13:28:56.723Z,17.57
2018-10-09T13:31:25.837Z,17.73
2018-10-09T13:33:55.026Z,16.07
2018-10-09T13:36:24.150Z,17.20
2018-10-09T13:38:53.310Z,15.97
2018-10-09T13:41:22.457Z,16.53
2018-10-09T13:43:51.709Z,15.07
2018-10-09T13:46:20.745Z,15.27
2018-10-09T13:48:49.900Z,16.93
2018-10-09T13:51:19.058Z,15.97
2018-10-09T13:53:48.287Z,15.23
2018-10-09T13:56:17.446Z,15.47
2018-10-09T13:58:46.581Z,15.27
2018-10-09T14:01:15.697Z,15.90
2018-10-09T14:03:44.887Z,14.33
2018-10-09T14:06:14.101Z,15.27
2018-10-09T14:08:43.262Z,14.00
2018-10-09T14:11:12.389Z,13.33
2018-10-09T14:13:41.550Z,13.57
2018-10-09T14:16:10.786Z,12.83
2018-10-09T14:18:40.025Z,12.50
2018-10-09T14:21:09.236Z,11.83
2018-10-09T14:23:38.609Z,11.80
2018-10-09T14:26:07.991Z,10.47
2018-10-09T14:28:37.216Z,10.40
2018-10-09T14:31:06.406Z,10.33
2018-10-09T14:33:35.898Z,10.40
2018-10-09T14:36:05.086Z,14.43
2018-10-09T14:38:34.767Z,11.30
2018-10-09T14:41:03.947Z,10.67
2018-10-09T14:43:43.364Z,12.10
2018-10-09T14:46:12.963Z,9.70
2018-10-09T14:48:42.359Z,10.17
2018-10-09T14:51:11.607Z,9.37
2018-10-09T14:53:40.809Z,9.03
2018-10-09T14:56:09.975Z,9.57
2018-10-09T14:58:39.167Z,9.23
2018-10-09T15:01:08.486Z,8.90
2018-10-09T15:03:37.617Z,9.40
2018-10-09T15:06:06.832Z,8.43
2018-10-09T15:08:36.378Z,8.93
2018-10-09T15:11:05.472Z,8.63
2018-10-09T15:13:34.734Z,8.50
2018-10-09T15:16:03.937Z,8.53
2018-10-09T15:18:33.062Z,8.80
2018-10-09T15:21:02.166Z,8.40
2018-10-09T15:23:31.336Z,8.23
2018-10-09T15:26:00.486Z,9.83
2018-10-09T15:28:29.697Z,8.53
2018-10-09T15:30:58.925Z,8.27
2018-10-09T15:33:28.190Z,8.33
2018-10-09T15:35:57.331Z,8.83
2018-10-09T15:38:26.498Z,9.03
2018-10-09T15:40:55.652Z,10.03
2018-10-09T15:43:24.738Z,8.57
2018-10-09T15:45:53.928Z,10.07
2018-10-09T15:48:23.091Z,8.50
2018-10-09T15:50:52.209Z,8.43
2018-10-09T15:53:21.360Z,7.90
2018-10-09T15:55:50.615Z,8.47
2018-10-09T15:58:19.798Z,7.93
2018-10-09T16:00:49.031Z,8.37
2018-10-09T16:03:18.142Z,10.37
2018-10-09T16:05:47.343Z,7.93
2018-10-09T16:08:16.565Z,7.83
2018-10-09T16:10:45.642Z,8.03
2018-10-09T16:13:14.770Z,7.50
2018-10-09T16:15:43.940Z,7.70
2018-10-09T16:18:13.059Z,7.10
2018-10-09T16:20:42.153Z,8.47
2018-10-09T16:23:11.277Z,7.85
2018-10-09T16:25:40.402Z,7.60
2018-10-09T16:28:09.705Z,7.83
2018-10-09T16:30:38.843Z,8.00
2018-10-09T16:33:08.339Z,7.97
2018-10-09T16:35:37.474Z,8.93
2018-10-09T16:38:06.726Z,8.30
2018-10-09T16:40:35.866Z,9.93
2018-10-09T16:43:04.967Z,8.23
2018-10-09T16:45:34.100Z,8.13
2018-10-09T16:48:03.306Z,8.40
2018-10-09T16:50:32.429Z,8.10
2018-10-09T16:53:01.574Z,7.87
2018-10-09T16:55:30.642Z,8.00
2018-10-09T16:57:59.786Z,8.90
2018-10-09T17:00:28.965Z,9.67
2018-10-09T17:02:58.204Z,7.70
2018-10-09T17:05:27.311Z,8.50
2018-10-09T17:07:56.434Z,8.87
2018-10-09T17:10:25.511Z,9.00
2018-10-09T17:12:54.669Z,8.70
2018-10-09T17:15:23.812Z,8.60
2018-10-09T17:17:52.970Z,9.80
2018-10-09T17:20:22.090Z,9.10
2018-10-09T17:22:51.406Z,8.77
2018-10-09T17:25:20.522Z,8.40
2018-10-09T17:27:49.737Z,9.70
2018-10-09T17:30:18.798Z,10.20
2018-10-09T17:32:47.963Z,9.97
2018-10-09T17:38:18.037Z,10.97
2018-10-09T17:40:47.086Z,10.60
2018-10-09T17:43:16.257Z,10.53
2018-10-09T17:45:45.377Z,10.13
2018-10-09T17:48:14.573Z,10.27
2018-10-09T17:50:43.736Z,10.37
2018-10-09T17:53:12.900Z,11.37
2018-10-09T17:55:42.075Z,11.23
2018-10-09T17:58:11.210Z,10.97
2018-10-09T18:00:40.376Z,10.73
2018-10-09T18:03:09.521Z,11.57
2018-10-09T18:05:39.128Z,12.00
2018-10-09T18:08:08.690Z,11.87
2018-10-09T18:10:37.942Z,11.83
2018-10-09T18:13:07.230Z,12.00
2018-10-09T18:15:36.333Z,12.87
2018-10-09T18:18:05.924Z,12.47
2018-10-09T18:20:35.140Z,13.37
2018-10-09T18:23:05.423Z,12.10
2018-10-09T18:25:35.560Z,12.73
2018-10-09T18:28:04.690Z,12.93
2018-10-09T18:30:33.798Z,13.43
2018-10-09T18:33:03.179Z,13.13
2018-10-09T18:35:32.027Z,12.97
2018-10-09T18:38:01.235Z,13.57
2018-10-09T18:40:30.321Z,13.50
2018-10-09T18:43:01.386Z,13.87
2018-10-09T18:45:30.654Z,13.57
2018-10-09T18:47:59.793Z,14.20
2018-10-09T18:50:28.941Z,13.90
2018-10-09T18:53:09.551Z,14.13
2018-10-09T18:55:38.674Z,14.57
2018-10-09T18:58:07.787Z,14.77
2018-10-09T19:00:36.923Z,17.33
2018-10-09T19:03:06.041Z,17.47
2018-10-09T19:05:35.170Z,16.30
2018-10-09T19:10:59.545Z,15.10
2018-10-09T19:13:28.727Z,15.73
2018-10-09T19:15:58.662Z,15.37
2018-10-09T19:18:27.872Z,16.53
2018-10-09T19:20:57.399Z,15.30
2018-10-09T19:23:27.418Z,15.47
2018-10-09T19:25:56.637Z,15.33
2018-10-09T19:28:25.702Z,15.03
2018-10-09T19:30:54.987Z,16.47
2018-10-09T19:33:24.107Z,16.90
2018-10-09T19:35:53.217Z,14.97
2018-10-09T19:38:22.286Z,15.57
2018-10-09T19:40:51.362Z,15.27
2018-10-09T19:43:20.494Z,15.63
2018-10-09T19:45:49.702Z,15.47
2018-10-09T19:48:18.823Z,15.77
2018-10-09T19:50:48.002Z,15.03
2018-10-09T19:53:17.061Z,15.27
2018-10-09T19:55:46.115Z,16.40
2018-10-09T19:58:15.262Z,16.90
2018-10-09T20:00:44.716Z,17.03
2018-10-09T20:03:13.875Z,16.33
2018-10-09T20:05:43.072Z,16.67
2018-10-09T20:08:12.227Z,16.63
2018-10-09T20:10:41.447Z,16.83
2018-10-09T20:13:10.541Z,17.93
2018-10-09T20:15:39.646Z,17.60
2018-10-09T20:18:08.774Z,17.60
2018-10-09T20:20:37.878Z,17.90
2018-10-09T20:23:07.303Z,17.80
2018-10-09T20:25:36.354Z,17.50
2018-10-09T20:28:05.674Z,16.73
2018-10-09T20:30:34.974Z,17.33
2018-10-09T20:33:04.832Z,17.20
2018-10-09T20:35:33.983Z,17.17
2018-10-09T20:38:03.190Z,16.90
2018-10-09T20:40:32.334Z,17.53
2018-10-09T20:43:01.439Z,16.30
2018-10-09T20:48:40.806Z,16.77
2018-10-09T20:51:10.122Z,16.97
2018-10-09T20:53:39.262Z,16.33
2018-10-09T20:56:08.506Z,17.03
2018-10-09T20:58:37.612Z,16.20
2018-10-09T21:01:06.970Z,16.33
2018-10-09T21:03:36.077Z,16.53
2018-10-09T21:06:05.150Z,16.40
2018-10-09T21:08:35.036Z,16.93
2018-10-09T21:11:04.468Z,16.07
2018-10-09T21:13:33.694Z,16.20
2018-10-09T21:16:02.778Z,16.00
2018-10-09T21:18:31.925Z,15.47
2018-10-09T21:21:01.642Z,16.50
2018-10-09T21:23:31.202Z,15.80
2018-10-09T21:26:00.287Z,16.83
2018-10-09T21:28:29.407Z,16.20
2018-10-09T21:30:58.545Z,16.87
2018-10-09T21:33:27.633Z,16.90
2018-10-09T21:35:56.727Z,17.40
2018-10-09T21:38:25.825Z,16.90
2018-10-09T21:40:54.955Z,17.87
2018-10-09T21:43:24.054Z,16.80
2018-10-09T21:45:53.049Z,16.77
2018-10-09T21:48:22.294Z,17.73
2018-10-09T21:50:51.413Z,17.17
2018-10-09T21:53:20.463Z,17.37
2018-10-09T21:55:49.481Z,16.77
2018-10-09T21:58:18.695Z,16.70
2018-10-09T22:00:52.874Z,18.10
2018-10-09T22:03:21.977Z,17.30
2018-10-09T22:05:51.066Z,17.93
2018-10-09T22:08:20.216Z,16.87
2018-10-09T22:10:49.255Z,17.03
2018-10-09T22:13:18.317Z,18.00
2018-10-09T22:15:47.503Z,16.97
2018-10-09T22:18:16.678Z,16.33
2018-10-09T22:20:45.900Z,16.40
2018-10-09T22:23:15.025Z,17.50
2018-10-09T22:25:44.018Z,17.10
2018-10-09T22:28:13.092Z,17.63
2018-10-09T22:30:42.230Z,18.43
2018-10-09T22:33:11.273Z,18.87
2018-10-09T22:35:40.393Z,18.27
2018-10-09T22:38:09.546Z,17.67
2018-10-09T22:40:38.763Z,18.77
2018-10-09T22:43:07.863Z,19.00
2018-10-09T22:45:36.970Z,18.47
2018-10-09T22:48:06.074Z,18.30
2018-10-09T22:50:35.258Z,19.13
2018-10-09T22:53:04.377Z,18.87
2018-10-09T22:55:33.544Z,18.17
2018-10-09T22:58:02.662Z,17.63
2018-10-09T23:00:31.753Z,19.10
2018-10-09T23:03:00.888Z,18.23
2018-10-09T23:05:30.005Z,18.67
2018-10-09T23:07:59.134Z,17.97
2018-10-09T23:10:28.324Z,18.33
2018-10-09T23:12:57.438Z,19.03
2018-10-09T23:15:26.562Z,19.37
2018-10-09T23:17:55.650Z,18.40
2018-10-09T23:20:24.819Z,17.83
2018-10-09T23:22:53.961Z,18.97
2018-10-09T23:25:23.093Z,19.30
2018-10-09T23:27:52.154Z,20.27
2018-10-09T23:30:21.240Z,19.40
2018-10-09T23:32:50.318Z,20.00
2018-10-09T23:35:19.442Z,20.33
2018-10-09T23:37:48.550Z,19.03
2018-10-09T23:40:17.666Z,19.17
2018-10-09T23:42:46.754Z,19.77
2018-10-09T23:45:15.806Z,19.53
2018-10-09T23:47:44.902Z,20.10
2018-10-09T23:50:13.955Z,20.73
2018-10-09T23:52:43.090Z,21.20
2018-10-09T23:55:12.210Z,33.60
2018-10-09T23:57:41.322Z,25.13
